sensor_id;sensor_type;location;lat;lon;timestamp;P1;durP1;ratioP1;P2;durP2;ratioP2
39098;SDS011;24844;52.380;7.018;2023-08-07T00:02:24;14.75;;;3.85;;
39098;SDS011;24844;52.380;7.018;2023-08-07T00:04:50;14.75;;;4.13;;
39098;SDS011;24844;52.380;7.018;2023-08-07T00:07:15;17.95;;;4.53;;
39098;SDS011;24844;52.380;7.018;2023-08-07T00:09:41;18.02;;;5.60;;
39098;SDS011;24844;52.380;7.018;2023-08-07T00:12:06;23.02;;;7.10;;
39098;SDS011;24844;52.380;7.018;2023-08-07T00:14:32;17.40;;;6.55;;
39098;SDS011;24844;52.380;7.018;2023-08-07T00:16:58;18.63;;;7.32;;
39098;SDS011;24844;52.380;7.018;2023-08-07T00:19:23;22.23;;;8.15;;
39098;SDS011;24844;52.380;7.018;2023-08-07T00:21:49;20.30;;;8.60;;
39098;SDS011;24844;52.380;7.018;2023-08-07T00:24:14;18.67;;;7.90;;
39098;SDS011;24844;52.380;7.018;2023-08-07T00:26:40;17.25;;;8.05;;
39098;SDS011;24844;52.380;7.018;2023-08-07T00:29:05;15.43;;;7.55;;
39098;SDS011;24844;52.380;7.018;2023-08-07T00:31:31;18.10;;;8.90;;
39098;SDS011;24844;52.380;7.018;2023-08-07T00:33:57;21.92;;;10.30;;
39098;SDS011;24844;52.380;7.018;2023-08-07T00:36:23;17.35;;;8.15;;
39098;SDS011;24844;52.380;7.018;2023-08-07T00:38:49;18.15;;;9.30;;
39098;SDS011;24844;52.380;7.018;2023-08-07T00:41:16;16.05;;;8.52;;
39098;SDS011;24844;52.380;7.018;2023-08-07T00:43:42;14.57;;;8.77;;
39098;SDS011;24844;52.380;7.018;2023-08-07T00:46:07;22.23;;;9.77;;
39098;SDS011;24844;52.380;7.018;2023-08-07T00:48:33;12.60;;;7.63;;
39098;SDS011;24844;52.380;7.018;2023-08-07T00:50:59;14.48;;;8.65;;
39098;SDS011;24844;52.380;7.018;2023-08-07T00:53:25;15.48;;;8.65;;
39098;SDS011;24844;52.380;7.018;2023-08-07T00:55:51;20.38;;;9.95;;
39098;SDS011;24844;52.380;7.018;2023-08-07T00:58:16;12.88;;;7.93;;
39098;SDS011;24844;52.380;7.018;2023-08-07T01:00:43;15.50;;;8.70;;
39098;SDS011;24844;52.380;7.018;2023-08-07T01:03:09;15.45;;;9.82;;
39098;SDS011;24844;52.380;7.018;2023-08-07T01:05:37;16.80;;;8.77;;
39098;SDS011;24844;52.380;7.018;2023-08-07T01:08:02;16.00;;;8.90;;
39098;SDS011;24844;52.380;7.018;2023-08-07T01:13:29;12.27;;;9.13;;
39098;SDS011;24844;52.380;7.018;2023-08-07T01:16:35;15.13;;;8.88;;
39098;SDS011;24844;52.380;7.018;2023-08-07T01:19:33;14.30;;;8.98;;
39098;SDS011;24844;52.380;7.018;2023-08-07T01:22:06;14.77;;;9.48;;
39098;SDS011;24844;52.380;7.018;2023-08-07T01:24:36;20.38;;;10.70;;
39098;SDS011;24844;52.380;7.018;2023-08-07T01:29:43;16.50;;;9.65;;
39098;SDS011;24844;52.380;7.018;2023-08-07T01:32:09;15.38;;;8.98;;
39098;SDS011;24844;52.380;7.018;2023-08-07T01:34:39;15.80;;;9.02;;
39098;SDS011;24844;52.380;7.018;2023-08-07T01:37:07;12.15;;;8.38;;
39098;SDS011;24844;52.380;7.018;2023-08-07T01:39:35;13.15;;;9.65;;
39098;SDS011;24844;52.380;7.018;2023-08-07T01:42:02;13.63;;;8.73;;
39098;SDS011;24844;52.380;7.018;2023-08-07T01:44:30;12.40;;;7.93;;
39098;SDS011;24844;52.380;7.018;2023-08-07T01:46:55;15.25;;;8.50;;
39098;SDS011;24844;52.380;7.018;2023-08-07T01:49:21;14.32;;;9.15;;
39098;SDS011;24844;52.380;7.018;2023-08-07T01:51:47;10.98;;;7.53;;
39098;SDS011;24844;52.380;7.018;2023-08-07T01:54:12;14.40;;;9.05;;
39098;SDS011;24844;52.380;7.018;2023-08-07T01:56:38;8.82;;;6.80;;
39098;SDS011;24844;52.380;7.018;2023-08-07T01:59:03;9.73;;;7.15;;
39098;SDS011;24844;52.380;7.018;2023-08-07T02:01:29;12.80;;;8.32;;
39098;SDS011;24844;52.380;7.018;2023-08-07T02:03:55;12.63;;;8.60;;
39098;SDS011;24844;52.380;7.018;2023-08-07T02:06:20;12.60;;;7.70;;
39098;SDS011;24844;52.380;7.018;2023-08-07T02:08:46;12.57;;;8.30;;
39098;SDS011;24844;52.380;7.018;2023-08-07T02:11:12;13.18;;;7.65;;
39098;SDS011;24844;52.380;7.018;2023-08-07T02:13:38;10.57;;;7.00;;
39098;SDS011;24844;52.380;7.018;2023-08-07T02:16:03;10.30;;;6.32;;
39098;SDS011;24844;52.380;7.018;2023-08-07T02:18:29;11.88;;;6.55;;
39098;SDS011;24844;52.380;7.018;2023-08-07T02:20:54;15.80;;;6.57;;
39098;SDS011;24844;52.380;7.018;2023-08-07T02:23:20;13.65;;;6.22;;
39098;SDS011;24844;52.380;7.018;2023-08-07T02:25:45;10.40;;;5.68;;
39098;SDS011;24844;52.380;7.018;2023-08-07T02:28:11;13.65;;;5.82;;
39098;SDS011;24844;52.380;7.018;2023-08-07T02:30:37;13.68;;;6.80;;
39098;SDS011;24844;52.380;7.018;2023-08-07T02:33:02;11.90;;;5.30;;
39098;SDS011;24844;52.380;7.018;2023-08-07T02:35:28;11.00;;;5.20;;
39098;SDS011;24844;52.380;7.018;2023-08-07T02:37:54;9.85;;;5.32;;
39098;SDS011;24844;52.380;7.018;2023-08-07T02:40:20;16.55;;;5.22;;
39098;SDS011;24844;52.380;7.018;2023-08-07T02:42:45;14.82;;;5.07;;
39098;SDS011;24844;52.380;7.018;2023-08-07T02:45:11;13.68;;;4.60;;
39098;SDS011;24844;52.380;7.018;2023-08-07T02:47:36;12.45;;;4.85;;
39098;SDS011;24844;52.380;7.018;2023-08-07T02:50:02;13.77;;;5.03;;
39098;SDS011;24844;52.380;7.018;2023-08-07T02:52:27;18.42;;;4.95;;
39098;SDS011;24844;52.380;7.018;2023-08-07T02:54:53;13.15;;;4.88;;
39098;SDS011;24844;52.380;7.018;2023-08-07T02:57:19;14.73;;;4.70;;
39098;SDS011;24844;52.380;7.018;2023-08-07T02:59:44;19.15;;;5.05;;
39098;SDS011;24844;52.380;7.018;2023-08-07T03:02:10;13.23;;;3.90;;
39098;SDS011;24844;52.380;7.018;2023-08-07T03:04:35;12.82;;;4.45;;
39098;SDS011;24844;52.380;7.018;2023-08-07T03:07:01;13.00;;;4.72;;
39098;SDS011;24844;52.380;7.018;2023-08-07T03:09:27;10.35;;;3.97;;
39098;SDS011;24844;52.380;7.018;2023-08-07T03:11:53;6.25;;;3.45;;
39098;SDS011;24844;52.380;7.018;2023-08-07T03:14:18;15.85;;;4.25;;
39098;SDS011;24844;52.380;7.018;2023-08-07T03:16:44;10.45;;;3.08;;
39098;SDS011;24844;52.380;7.018;2023-08-07T03:19:11;10.93;;;3.53;;
39098;SDS011;24844;52.380;7.018;2023-08-07T03:21:36;10.77;;;2.95;;
39098;SDS011;24844;52.380;7.018;2023-08-07T03:24:02;11.20;;;3.10;;
39098;SDS011;24844;52.380;7.018;2023-08-07T03:26:27;8.68;;;3.10;;
39098;SDS011;24844;52.380;7.018;2023-08-07T03:28:53;12.10;;;3.15;;
39098;SDS011;24844;52.380;7.018;2023-08-07T03:31:19;8.80;;;2.70;;
39098;SDS011;24844;52.380;7.018;2023-08-07T03:33:44;11.63;;;2.83;;
39098;SDS011;24844;52.380;7.018;2023-08-07T03:36:10;8.75;;;2.63;;
39098;SDS011;24844;52.380;7.018;2023-08-07T03:38:36;7.43;;;2.33;;
39098;SDS011;24844;52.380;7.018;2023-08-07T03:41:01;10.68;;;2.55;;
39098;SDS011;24844;52.380;7.018;2023-08-07T03:43:27;9.00;;;2.45;;
39098;SDS011;24844;52.380;7.018;2023-08-07T03:45:55;7.15;;;2.10;;
39098;SDS011;24844;52.380;7.018;2023-08-07T03:48:24;7.13;;;1.98;;
39098;SDS011;24844;52.380;7.018;2023-08-07T03:50:50;9.20;;;2.13;;
39098;SDS011;24844;52.380;7.018;2023-08-07T03:53:15;5.93;;;1.90;;
39098;SDS011;24844;52.380;7.018;2023-08-07T03:55:41;8.82;;;2.00;;
39098;SDS011;24844;52.380;7.018;2023-08-07T03:58:07;3.45;;;1.65;;
39098;SDS011;24844;52.380;7.018;2023-08-07T04:00:33;7.18;;;1.80;;
39098;SDS011;24844;52.380;7.018;2023-08-07T04:02:59;4.85;;;1.80;;
39098;SDS011;24844;52.380;7.018;2023-08-07T04:05:24;6.47;;;1.90;;
39098;SDS011;24844;52.380;7.018;2023-08-07T04:07:50;8.55;;;1.95;;
39098;SDS011;24844;52.380;7.018;2023-08-07T04:10:15;7.72;;;1.58;;
39098;SDS011;24844;52.380;7.018;2023-08-07T04:12:41;6.30;;;1.77;;
39098;SDS011;24844;52.380;7.018;2023-08-07T04:15:07;6.82;;;1.70;;
39098;SDS011;24844;52.380;7.018;2023-08-07T04:17:34;7.30;;;2.03;;
39098;SDS011;24844;52.380;7.018;2023-08-07T04:20:00;7.22;;;1.80;;
39098;SDS011;24844;52.380;7.018;2023-08-07T04:22:26;9.10;;;1.70;;
39098;SDS011;24844;52.380;7.018;2023-08-07T04:24:51;6.25;;;2.08;;
39098;SDS011;24844;52.380;7.018;2023-08-07T04:27:17;8.10;;;2.00;;
39098;SDS011;24844;52.380;7.018;2023-08-07T04:29:42;6.38;;;1.80;;
39098;SDS011;24844;52.380;7.018;2023-08-07T04:32:08;5.72;;;1.80;;
39098;SDS011;24844;52.380;7.018;2023-08-07T04:34:34;6.97;;;2.08;;
39098;SDS011;24844;52.380;7.018;2023-08-07T04:37:00;4.80;;;1.80;;
39098;SDS011;24844;52.380;7.018;2023-08-07T04:39:25;10.00;;;2.22;;
39098;SDS011;24844;52.380;7.018;2023-08-07T04:41:51;7.95;;;2.00;;
39098;SDS011;24844;52.380;7.018;2023-08-07T04:44:17;14.27;;;2.42;;
39098;SDS011;24844;52.380;7.018;2023-08-07T04:46:42;12.88;;;2.40;;
39098;SDS011;24844;52.380;7.018;2023-08-07T04:49:08;6.88;;;2.00;;
39098;SDS011;24844;52.380;7.018;2023-08-07T04:51:33;12.85;;;2.50;;
39098;SDS011;24844;52.380;7.018;2023-08-07T04:53:59;15.05;;;2.40;;
39098;SDS011;24844;52.380;7.018;2023-08-07T04:56:25;11.20;;;2.25;;
39098;SDS011;24844;52.380;7.018;2023-08-07T04:58:50;9.75;;;2.22;;
39098;SDS011;24844;52.380;7.018;2023-08-07T05:01:16;10.82;;;2.83;;
39098;SDS011;24844;52.380;7.018;2023-08-07T05:03:41;8.00;;;2.58;;
39098;SDS011;24844;52.380;7.018;2023-08-07T05:06:07;7.88;;;2.42;;
39098;SDS011;24844;52.380;7.018;2023-08-07T05:08:33;14.27;;;2.88;;
39098;SDS011;24844;52.380;7.018;2023-08-07T05:10:58;9.35;;;2.33;;
39098;SDS011;24844;52.380;7.018;2023-08-07T05:13:24;8.95;;;2.70;;
39098;SDS011;24844;52.380;7.018;2023-08-07T05:15:49;12.27;;;2.40;;
39098;SDS011;24844;52.380;7.018;2023-08-07T05:18:15;11.15;;;2.67;;
39098;SDS011;24844;52.380;7.018;2023-08-07T05:20:41;8.77;;;2.42;;
39098;SDS011;24844;52.380;7.018;2023-08-07T05:23:07;8.13;;;2.42;;
39098;SDS011;24844;52.380;7.018;2023-08-07T05:25:33;7.43;;;2.88;;
39098;SDS011;24844;52.380;7.018;2023-08-07T05:27:59;10.07;;;2.47;;
39098;SDS011;24844;52.380;7.018;2023-08-07T05:30:24;7.85;;;2.38;;
39098;SDS011;24844;52.380;7.018;2023-08-07T05:32:50;6.13;;;2.28;;
39098;SDS011;24844;52.380;7.018;2023-08-07T05:35:16;6.90;;;2.10;;
39098;SDS011;24844;52.380;7.018;2023-08-07T05:37:41;12.27;;;2.63;;
39098;SDS011;24844;52.380;7.018;2023-08-07T05:40:07;7.63;;;2.35;;
39098;SDS011;24844;52.380;7.018;2023-08-07T05:42:33;9.90;;;2.55;;
39098;SDS011;24844;52.380;7.018;2023-08-07T05:44:59;6.35;;;1.95;;
39098;SDS011;24844;52.380;7.018;2023-08-07T05:47:25;9.05;;;2.33;;
39098;SDS011;24844;52.380;7.018;2023-08-07T05:49:51;7.20;;;2.40;;
39098;SDS011;24844;52.380;7.018;2023-08-07T05:52:17;4.60;;;2.30;;
39098;SDS011;24844;52.380;7.018;2023-08-07T05:54:43;9.85;;;2.38;;
39098;SDS011;24844;52.380;7.018;2023-08-07T05:57:08;10.98;;;2.20;;
39098;SDS011;24844;52.380;7.018;2023-08-07T05:59:34;11.90;;;2.50;;
39098;SDS011;24844;52.380;7.018;2023-08-07T06:02:01;7.10;;;2.08;;
39098;SDS011;24844;52.380;7.018;2023-08-07T06:04:27;6.15;;;2.05;;
39098;SDS011;24844;52.380;7.018;2023-08-07T06:06:52;9.27;;;2.10;;
39098;SDS011;24844;52.380;7.018;2023-08-07T06:09:18;10.70;;;2.55;;
39098;SDS011;24844;52.380;7.018;2023-08-07T06:11:45;8.63;;;2.13;;
39098;SDS011;24844;52.380;7.018;2023-08-07T06:14:11;7.50;;;2.03;;
39098;SDS011;24844;52.380;7.018;2023-08-07T06:16:36;7.78;;;2.38;;
39098;SDS011;24844;52.380;7.018;2023-08-07T06:19:02;11.80;;;2.50;;
39098;SDS011;24844;52.380;7.018;2023-08-07T06:21:28;7.95;;;2.47;;
39098;SDS011;24844;52.380;7.018;2023-08-07T06:23:54;10.27;;;3.17;;
39098;SDS011;24844;52.380;7.018;2023-08-07T06:26:19;7.05;;;2.10;;
39098;SDS011;24844;52.380;7.018;2023-08-07T06:28:45;12.75;;;2.72;;
39098;SDS011;24844;52.380;7.018;2023-08-07T06:31:11;12.07;;;2.38;;
39098;SDS011;24844;52.380;7.018;2023-08-07T06:33:37;14.93;;;9.00;;
39098;SDS011;24844;52.380;7.018;2023-08-07T06:36:03;14.23;;;2.75;;
39098;SDS011;24844;52.380;7.018;2023-08-07T06:38:29;8.48;;;2.15;;
39098;SDS011;24844;52.380;7.018;2023-08-07T06:40:55;13.60;;;3.15;;
39098;SDS011;24844;52.380;7.018;2023-08-07T06:43:21;10.20;;;2.55;;
39098;SDS011;24844;52.380;7.018;2023-08-07T06:45:48;6.20;;;1.98;;
39098;SDS011;24844;52.380;7.018;2023-08-07T06:48:14;5.72;;;2.15;;
39098;SDS011;24844;52.380;7.018;2023-08-07T06:50:40;9.20;;;2.20;;
39098;SDS011;24844;52.380;7.018;2023-08-07T06:53:06;6.50;;;2.20;;
39098;SDS011;24844;52.380;7.018;2023-08-07T06:55:31;8.25;;;2.20;;
39098;SDS011;24844;52.380;7.018;2023-08-07T06:57:58;6.18;;;2.10;;
39098;SDS011;24844;52.380;7.018;2023-08-07T07:00:24;6.13;;;2.25;;
39098;SDS011;24844;52.380;7.018;2023-08-07T07:02:49;5.63;;;2.05;;
39098;SDS011;24844;52.380;7.018;2023-08-07T07:05:15;10.13;;;2.30;;
39098;SDS011;24844;52.380;7.018;2023-08-07T07:07:40;7.43;;;2.47;;
39098;SDS011;24844;52.380;7.018;2023-08-07T07:10:06;8.45;;;2.20;;
39098;SDS011;24844;52.380;7.018;2023-08-07T07:12:32;8.90;;;3.05;;
39098;SDS011;24844;52.380;7.018;2023-08-07T07:14:58;9.85;;;2.45;;
39098;SDS011;24844;52.380;7.018;2023-08-07T07:17:24;12.60;;;2.90;;
39098;SDS011;24844;52.380;7.018;2023-08-07T07:19:49;6.15;;;2.22;;
39098;SDS011;24844;52.380;7.018;2023-08-07T07:22:15;9.52;;;4.20;;
39098;SDS011;24844;52.380;7.018;2023-08-07T07:24:40;11.88;;;2.88;;
39098;SDS011;24844;52.380;7.018;2023-08-07T07:27:06;6.35;;;2.55;;
39098;SDS011;24844;52.380;7.018;2023-08-07T07:29:32;10.38;;;2.65;;
39098;SDS011;24844;52.380;7.018;2023-08-07T07:31:57;10.55;;;3.15;;
39098;SDS011;24844;52.380;7.018;2023-08-07T07:34:23;10.30;;;3.35;;
39098;SDS011;24844;52.380;7.018;2023-08-07T07:36:48;9.35;;;2.70;;
39098;SDS011;24844;52.380;7.018;2023-08-07T07:39:14;11.63;;;3.67;;
39098;SDS011;24844;52.380;7.018;2023-08-07T07:41:40;12.55;;;3.15;;
39098;SDS011;24844;52.380;7.018;2023-08-07T07:44:05;7.50;;;2.53;;
39098;SDS011;24844;52.380;7.018;2023-08-07T07:46:31;7.90;;;2.83;;
39098;SDS011;24844;52.380;7.018;2023-08-07T07:48:58;12.70;;;5.82;;
39098;SDS011;24844;52.380;7.018;2023-08-07T07:51:24;9.57;;;4.05;;
39098;SDS011;24844;52.380;7.018;2023-08-07T07:53:49;6.45;;;2.40;;
39098;SDS011;24844;52.380;7.018;2023-08-07T07:56:15;8.57;;;2.50;;
39098;SDS011;24844;52.380;7.018;2023-08-07T07:58:41;7.20;;;2.17;;
39098;SDS011;24844;52.380;7.018;2023-08-07T08:01:07;7.90;;;2.58;;
39098;SDS011;24844;52.380;7.018;2023-08-07T08:03:33;7.57;;;2.60;;
39098;SDS011;24844;52.380;7.018;2023-08-07T08:05:59;10.38;;;2.97;;
39098;SDS011;24844;52.380;7.018;2023-08-07T08:08:24;6.68;;;2.90;;
39098;SDS011;24844;52.380;7.018;2023-08-07T08:10:50;8.93;;;3.35;;
39098;SDS011;24844;52.380;7.018;2023-08-07T08:13:16;7.20;;;3.33;;
39098;SDS011;24844;52.380;7.018;2023-08-07T08:15:42;7.65;;;3.55;;
39098;SDS011;24844;52.380;7.018;2023-08-07T08:18:08;10.80;;;4.65;;
39098;SDS011;24844;52.380;7.018;2023-08-07T08:20:34;7.38;;;2.40;;
39098;SDS011;24844;52.380;7.018;2023-08-07T08:22:59;10.38;;;5.13;;
39098;SDS011;24844;52.380;7.018;2023-08-07T08:25:25;6.70;;;3.92;;
39098;SDS011;24844;52.380;7.018;2023-08-07T08:27:51;10.15;;;5.38;;
39098;SDS011;24844;52.380;7.018;2023-08-07T08:30:16;9.80;;;5.97;;
39098;SDS011;24844;52.380;7.018;2023-08-07T08:32:42;14.05;;;12.85;;
39098;SDS011;24844;52.380;7.018;2023-08-07T08:35:08;7.55;;;4.05;;
39098;SDS011;24844;52.380;7.018;2023-08-07T08:37:34;8.48;;;5.05;;
39098;SDS011;24844;52.380;7.018;2023-08-07T08:40:00;7.40;;;4.70;;
39098;SDS011;24844;52.380;7.018;2023-08-07T08:42:26;7.13;;;2.63;;
39098;SDS011;24844;52.380;7.018;2023-08-07T08:44:52;12.95;;;11.63;;
39098;SDS011;24844;52.380;7.018;2023-08-07T08:47:22;9.05;;;7.93;;
39098;SDS011;24844;52.380;7.018;2023-08-07T08:50:02;7.83;;;6.00;;
39098;SDS011;24844;52.380;7.018;2023-08-07T08:52:31;9.70;;;7.03;;
39098;SDS011;24844;52.380;7.018;2023-08-07T08:54:57;7.35;;;4.10;;
39098;SDS011;24844;52.380;7.018;2023-08-07T08:57:27;4.70;;;3.70;;
39098;SDS011;24844;52.380;7.018;2023-08-07T08:59:54;5.40;;;2.28;;
39098;SDS011;24844;52.380;7.018;2023-08-07T09:02:22;5.35;;;2.08;;
39098;SDS011;24844;52.380;7.018;2023-08-07T09:04:47;5.50;;;2.78;;
39098;SDS011;24844;52.380;7.018;2023-08-07T09:07:13;8.75;;;6.68;;
39098;SDS011;24844;52.380;7.018;2023-08-07T09:09:41;6.55;;;5.32;;
39098;SDS011;24844;52.380;7.018;2023-08-07T09:12:08;8.70;;;2.65;;
39098;SDS011;24844;52.380;7.018;2023-08-07T09:14:41;9.93;;;5.13;;
39098;SDS011;24844;52.380;7.018;2023-08-07T09:17:09;5.80;;;2.10;;
39098;SDS011;24844;52.380;7.018;2023-08-07T09:19:35;7.05;;;4.00;;
39098;SDS011;24844;52.380;7.018;2023-08-07T09:22:01;7.32;;;4.18;;
39098;SDS011;24844;52.380;7.018;2023-08-07T09:24:26;7.85;;;6.10;;
39098;SDS011;24844;52.380;7.018;2023-08-07T09:26:52;12.25;;;11.05;;
39098;SDS011;24844;52.380;7.018;2023-08-07T09:29:18;9.57;;;6.78;;
39098;SDS011;24844;52.380;7.018;2023-08-07T09:31:45;10.80;;;4.13;;
39098;SDS011;24844;52.380;7.018;2023-08-07T09:34:11;8.40;;;5.50;;
39098;SDS011;24844;52.380;7.018;2023-08-07T09:36:38;12.13;;;9.10;;
39098;SDS011;24844;52.380;7.018;2023-08-07T09:39:06;27.75;;;3.40;;
39098;SDS011;24844;52.380;7.018;2023-08-07T09:41:31;8.30;;;3.95;;
39098;SDS011;24844;52.380;7.018;2023-08-07T09:43:57;9.48;;;2.80;;
39098;SDS011;24844;52.380;7.018;2023-08-07T09:46:24;6.72;;;3.70;;
39098;SDS011;24844;52.380;7.018;2023-08-07T09:48:50;13.10;;;7.05;;
39098;SDS011;24844;52.380;7.018;2023-08-07T09:51:16;8.77;;;2.95;;
39098;SDS011;24844;52.380;7.018;2023-08-07T09:53:41;8.55;;;2.60;;
39098;SDS011;24844;52.380;7.018;2023-08-07T09:56:07;9.52;;;3.40;;
39098;SDS011;24844;52.380;7.018;2023-08-07T09:58:34;10.40;;;2.92;;
39098;SDS011;24844;52.380;7.018;2023-08-07T10:01:03;12.20;;;3.17;;
39098;SDS011;24844;52.380;7.018;2023-08-07T10:03:29;10.23;;;2.90;;
39098;SDS011;24844;52.380;7.018;2023-08-07T10:05:56;12.50;;;3.17;;
39098;SDS011;24844;52.380;7.018;2023-08-07T10:08:22;11.90;;;3.63;;
39098;SDS011;24844;52.380;7.018;2023-08-07T10:10:49;13.30;;;5.88;;
39098;SDS011;24844;52.380;7.018;2023-08-07T10:13:14;14.65;;;3.45;;
39098;SDS011;24844;52.380;7.018;2023-08-07T10:15:40;13.75;;;3.40;;
39098;SDS011;24844;52.380;7.018;2023-08-07T10:18:09;7.88;;;2.88;;
39098;SDS011;24844;52.380;7.018;2023-08-07T10:20:35;7.22;;;2.65;;
39098;SDS011;24844;52.380;7.018;2023-08-07T10:23:08;11.05;;;2.75;;
39098;SDS011;24844;52.380;7.018;2023-08-07T10:25:36;9.82;;;4.45;;
39098;SDS011;24844;52.380;7.018;2023-08-07T10:28:05;11.63;;;3.28;;
39098;SDS011;24844;52.380;7.018;2023-08-07T10:30:33;9.27;;;2.70;;
39098;SDS011;24844;52.380;7.018;2023-08-07T10:32:59;7.97;;;3.15;;
39098;SDS011;24844;52.380;7.018;2023-08-07T10:35:30;9.45;;;2.78;;
39098;SDS011;24844;52.380;7.018;2023-08-07T10:38:09;7.22;;;3.70;;
39098;SDS011;24844;52.380;7.018;2023-08-07T10:43:19;6.20;;;2.75;;
39098;SDS011;24844;52.380;7.018;2023-08-07T10:45:44;10.75;;;2.72;;
39098;SDS011;24844;52.380;7.018;2023-08-07T10:48:11;8.20;;;3.42;;
39098;SDS011;24844;52.380;7.018;2023-08-07T10:53:29;6.57;;;2.20;;
39098;SDS011;24844;52.380;7.018;2023-08-07T10:56:07;10.93;;;2.58;;
39098;SDS011;24844;52.380;7.018;2023-08-07T10:58:35;11.85;;;2.20;;
39098;SDS011;24844;52.380;7.018;2023-08-07T11:01:17;8.35;;;2.60;;
39098;SDS011;24844;52.380;7.018;2023-08-07T11:03:49;7.10;;;2.17;;
39098;SDS011;24844;52.380;7.018;2023-08-07T11:06:16;6.78;;;2.05;;
39098;SDS011;24844;52.380;7.018;2023-08-07T11:08:43;10.30;;;2.47;;
39098;SDS011;24844;52.380;7.018;2023-08-07T11:11:08;10.40;;;3.78;;
39098;SDS011;24844;52.380;7.018;2023-08-07T11:13:34;5.28;;;2.47;;
39098;SDS011;24844;52.380;7.018;2023-08-07T11:16:00;4.85;;;1.67;;
39098;SDS011;24844;52.380;7.018;2023-08-07T11:18:27;9.07;;;3.08;;
39098;SDS011;24844;52.380;7.018;2023-08-07T11:20:54;7.45;;;1.90;;
39098;SDS011;24844;52.380;7.018;2023-08-07T11:23:26;4.80;;;3.47;;
39098;SDS011;24844;52.380;7.018;2023-08-07T11:25:52;5.45;;;2.05;;
39098;SDS011;24844;52.380;7.018;2023-08-07T11:28:21;5.85;;;2.40;;
39098;SDS011;24844;52.380;7.018;2023-08-07T11:30:50;6.50;;;2.17;;
39098;SDS011;24844;52.380;7.018;2023-08-07T11:33:17;10.48;;;3.83;;
39098;SDS011;24844;52.380;7.018;2023-08-07T11:35:44;9.68;;;3.55;;
39098;SDS011;24844;52.380;7.018;2023-08-07T11:38:10;7.35;;;3.70;;
39098;SDS011;24844;52.380;7.018;2023-08-07T11:40:36;12.20;;;4.97;;
39098;SDS011;24844;52.380;7.018;2023-08-07T11:43:02;6.70;;;2.83;;
39098;SDS011;24844;52.380;7.018;2023-08-07T11:45:28;7.25;;;2.08;;
39098;SDS011;24844;52.380;7.018;2023-08-07T11:47:53;9.02;;;4.65;;
39098;SDS011;24844;52.380;7.018;2023-08-07T11:50:22;9.27;;;7.87;;
39098;SDS011;24844;52.380;7.018;2023-08-07T11:52:47;5.72;;;2.20;;
39098;SDS011;24844;52.380;7.018;2023-08-07T11:55:16;9.13;;;5.30;;
39098;SDS011;24844;52.380;7.018;2023-08-07T11:57:44;10.57;;;5.20;;
39098;SDS011;24844;52.380;7.018;2023-08-07T12:00:13;6.00;;;2.17;;
39098;SDS011;24844;52.380;7.018;2023-08-07T12:02:42;8.82;;;2.53;;
39098;SDS011;24844;52.380;7.018;2023-08-07T12:05:09;7.40;;;4.50;;
39098;SDS011;24844;52.380;7.018;2023-08-07T12:07:38;5.90;;;3.00;;
39098;SDS011;24844;52.380;7.018;2023-08-07T12:10:08;8.88;;;2.85;;
39098;SDS011;24844;52.380;7.018;2023-08-07T12:12:37;9.90;;;6.43;;
39098;SDS011;24844;52.380;7.018;2023-08-07T12:15:06;7.18;;;2.50;;
39098;SDS011;24844;52.380;7.018;2023-08-07T12:17:35;9.20;;;3.00;;
39098;SDS011;24844;52.380;7.018;2023-08-07T12:20:03;9.15;;;2.92;;
39098;SDS011;24844;52.380;7.018;2023-08-07T12:22:36;8.07;;;2.20;;
39098;SDS011;24844;52.380;7.018;2023-08-07T12:25:02;5.75;;;2.03;;
39098;SDS011;24844;52.380;7.018;2023-08-07T12:27:28;8.80;;;2.05;;
39098;SDS011;24844;52.380;7.018;2023-08-07T12:29:53;4.25;;;1.70;;
39098;SDS011;24844;52.380;7.018;2023-08-07T12:32:19;7.45;;;2.05;;
39098;SDS011;24844;52.380;7.018;2023-08-07T12:34:45;4.05;;;1.98;;
39098;SDS011;24844;52.380;7.018;2023-08-07T12:37:10;5.75;;;2.13;;
39098;SDS011;24844;52.380;7.018;2023-08-07T12:39:36;4.30;;;2.88;;
39098;SDS011;24844;52.380;7.018;2023-08-07T12:42:02;4.30;;;2.17;;
39098;SDS011;24844;52.380;7.018;2023-08-07T12:44:30;8.57;;;3.63;;
39098;SDS011;24844;52.380;7.018;2023-08-07T12:46:56;19.17;;;10.05;;
39098;SDS011;24844;52.380;7.018;2023-08-07T12:49:23;9.70;;;4.28;;
39098;SDS011;24844;52.380;7.018;2023-08-07T12:51:49;6.65;;;2.10;;
39098;SDS011;24844;52.380;7.018;2023-08-07T12:54:14;9.40;;;2.03;;
39098;SDS011;24844;52.380;7.018;2023-08-07T12:56:40;7.25;;;2.47;;
39098;SDS011;24844;52.380;7.018;2023-08-07T12:59:05;10.23;;;3.75;;
39098;SDS011;24844;52.380;7.018;2023-08-07T13:01:32;6.32;;;2.10;;
39098;SDS011;24844;52.380;7.018;2023-08-07T13:03:57;7.90;;;2.33;;
39098;SDS011;24844;52.380;7.018;2023-08-07T13:06:23;6.22;;;2.22;;
39098;SDS011;24844;52.380;7.018;2023-08-07T13:08:48;8.32;;;5.97;;
39098;SDS011;24844;52.380;7.018;2023-08-07T13:11:14;10.07;;;4.53;;
39098;SDS011;24844;52.380;7.018;2023-08-07T13:13:40;3.15;;;1.88;;
39098;SDS011;24844;52.380;7.018;2023-08-07T13:16:05;5.90;;;1.95;;
39098;SDS011;24844;52.380;7.018;2023-08-07T13:18:31;5.55;;;4.00;;
39098;SDS011;24844;52.380;7.018;2023-08-07T13:20:56;8.02;;;2.65;;
39098;SDS011;24844;52.380;7.018;2023-08-07T13:23:22;6.57;;;2.03;;
39098;SDS011;24844;52.380;7.018;2023-08-07T13:25:48;4.28;;;2.58;;
39098;SDS011;24844;52.380;7.018;2023-08-07T13:28:13;5.53;;;3.15;;
39098;SDS011;24844;52.380;7.018;2023-08-07T13:30:39;5.53;;;1.70;;
39098;SDS011;24844;52.380;7.018;2023-08-07T13:33:05;7.90;;;2.42;;
39098;SDS011;24844;52.380;7.018;2023-08-07T13:35:30;9.93;;;7.70;;
39098;SDS011;24844;52.380;7.018;2023-08-07T13:37:57;6.80;;;3.75;;
39098;SDS011;24844;52.380;7.018;2023-08-07T13:40:23;7.72;;;1.80;;
39098;SDS011;24844;52.380;7.018;2023-08-07T13:42:49;4.07;;;1.80;;
39098;SDS011;24844;52.380;7.018;2023-08-07T13:45:14;6.40;;;2.53;;
39098;SDS011;24844;52.380;7.018;2023-08-07T13:47:40;5.95;;;1.92;;
39098;SDS011;24844;52.380;7.018;2023-08-07T13:50:06;4.57;;;2.13;;
39098;SDS011;24844;52.380;7.018;2023-08-07T13:52:32;5.95;;;1.90;;
39098;SDS011;24844;52.380;7.018;2023-08-07T13:54:59;5.20;;;1.80;;
39098;SDS011;24844;52.380;7.018;2023-08-07T13:57:24;3.83;;;1.35;;
39098;SDS011;24844;52.380;7.018;2023-08-07T13:59:50;6.40;;;2.85;;
39098;SDS011;24844;52.380;7.018;2023-08-07T14:02:15;5.00;;;1.95;;
39098;SDS011;24844;52.380;7.018;2023-08-07T14:04:41;4.15;;;2.42;;
39098;SDS011;24844;52.380;7.018;2023-08-07T14:07:10;6.55;;;5.60;;
39098;SDS011;24844;52.380;7.018;2023-08-07T14:09:36;7.28;;;3.13;;
39098;SDS011;24844;52.380;7.018;2023-08-07T14:12:02;7.38;;;1.92;;
39098;SDS011;24844;52.380;7.018;2023-08-07T14:14:28;3.72;;;1.70;;
39098;SDS011;24844;52.380;7.018;2023-08-07T14:16:54;6.60;;;2.60;;
39098;SDS011;24844;52.380;7.018;2023-08-07T14:19:22;4.78;;;2.25;;
39098;SDS011;24844;52.380;7.018;2023-08-07T14:21:48;5.55;;;1.98;;
39098;SDS011;24844;52.380;7.018;2023-08-07T14:24:14;6.70;;;3.22;;
39098;SDS011;24844;52.380;7.018;2023-08-07T14:26:41;8.80;;;6.53;;
39098;SDS011;24844;52.380;7.018;2023-08-07T14:29:06;6.68;;;2.33;;
39098;SDS011;24844;52.380;7.018;2023-08-07T14:31:32;9.68;;;3.67;;
39098;SDS011;24844;52.380;7.018;2023-08-07T14:33:58;7.28;;;3.15;;
39098;SDS011;24844;52.380;7.018;2023-08-07T14:36:23;4.95;;;2.10;;
39098;SDS011;24844;52.380;7.018;2023-08-07T14:38:49;4.13;;;1.98;;
39098;SDS011;24844;52.380;7.018;2023-08-07T14:41:15;6.78;;;3.42;;
39098;SDS011;24844;52.380;7.018;2023-08-07T14:43:40;8.27;;;2.35;;
39098;SDS011;24844;52.380;7.018;2023-08-07T14:46:06;4.53;;;2.17;;
39098;SDS011;24844;52.380;7.018;2023-08-07T14:48:31;8.07;;;2.72;;
39098;SDS011;24844;52.380;7.018;2023-08-07T14:50:57;7.30;;;2.72;;